createdAt,value
2019-03-16T00:02:20.076Z,11.13
2019-03-16T00:04:49.040Z,7.73
2019-03-16T00:07:18.064Z,8.27
2019-03-16T00:09:47.040Z,7.33
2019-03-16T00:12:16.246Z,7.00
2019-03-16T00:14:45.880Z,10.13
2019-03-16T00:17:23.402Z,8.50
2019-03-16T00:19:45.845Z,8.17
2019-03-16T00:22:14.877Z,11.83
2019-03-16T00:24:43.777Z,10.17
2019-03-16T00:27:12.653Z,7.73
2019-03-16T00:29:42.017Z,7.73
2019-03-16T00:32:13.640Z,9.37
2019-03-16T00:34:41.588Z,6.63
2019-03-16T00:37:10.607Z,10.27
2019-03-16T00:39:39.557Z,12.13
2019-03-16T00:42:08.628Z,10.70
2019-03-16T00:44:38.005Z,7.57
2019-03-16T00:47:06.973Z,11.60
2019-03-16T00:49:36.082Z,10.93
2019-03-16T00:52:05.281Z,9.60
2019-03-16T00:54:34.293Z,11.07
2019-03-16T00:57:03.349Z,9.87
2019-03-16T00:59:32.290Z,10.17
2019-03-16T01:02:01.237Z,6.80
2019-03-16T01:04:30.245Z,13.50
2019-03-16T01:06:59.205Z,8.70
2019-03-16T01:09:28.155Z,10.77
2019-03-16T01:11:57.225Z,9.23
2019-03-16T01:14:26.185Z,12.20
2019-03-16T01:16:55.227Z,10.67
2019-03-16T01:19:24.229Z,10.57
2019-03-16T01:21:53.197Z,11.30
2019-03-16T01:24:22.092Z,9.23
2019-03-16T01:26:51.117Z,9.67
2019-03-16T01:29:20.402Z,6.60
2019-03-16T01:31:49.429Z,11.63
2019-03-16T01:34:18.290Z,12.47
2019-03-16T01:36:47.318Z,10.07
2019-03-16T01:39:16.282Z,12.57
2019-03-16T01:41:45.240Z,9.97
2019-03-16T01:44:14.195Z,9.13
2019-03-16T01:46:43.163Z,10.03
2019-03-16T01:49:12.392Z,7.97
2019-03-16T01:51:41.410Z,10.90
2019-03-16T01:54:10.398Z,9.77
2019-03-16T01:56:39.336Z,11.93
2019-03-16T01:59:08.308Z,13.57
2019-03-16T02:01:37.564Z,13.13
2019-03-16T02:04:06.571Z,9.50
2019-03-16T02:06:35.586Z,11.27
2019-03-16T02:09:06.762Z,10.00
2019-03-16T02:11:35.754Z,11.47
2019-03-16T02:14:04.848Z,11.47
2019-03-16T02:16:33.793Z,9.17
2019-03-16T02:19:03.248Z,8.03
2019-03-16T02:21:32.353Z,11.03
2019-03-16T02:24:01.352Z,13.73
2019-03-16T02:26:30.304Z,10.27
2019-03-16T02:28:59.252Z,9.30
2019-03-16T02:31:28.133Z,11.37
2019-03-16T02:33:57.093Z,10.50
2019-03-16T02:36:26.072Z,10.47
2019-03-16T02:38:54.953Z,14.83
2019-03-16T02:41:23.836Z,10.47
2019-03-16T02:43:52.721Z,7.70
2019-03-16T02:46:21.912Z,11.10
2019-03-16T02:48:50.890Z,9.70
2019-03-16T02:51:19.865Z,11.87
2019-03-16T02:53:49.121Z,11.63
2019-03-16T02:56:17.994Z,10.30
2019-03-16T02:58:46.874Z,13.53
2019-03-16T03:01:15.914Z,11.20
2019-03-16T03:03:44.969Z,13.03
2019-03-16T03:06:13.907Z,11.43
2019-03-16T03:08:42.852Z,10.13
2019-03-16T03:11:11.774Z,15.43
2019-03-16T03:13:40.777Z,8.93
2019-03-16T03:16:09.756Z,9.33
2019-03-16T03:18:38.722Z,10.10
2019-03-16T03:21:07.701Z,8.63
2019-03-16T03:23:36.837Z,11.83
2019-03-16T03:26:05.789Z,8.73
2019-03-16T03:28:34.742Z,12.67
2019-03-16T03:31:04.059Z,7.07
2019-03-16T03:33:57.504Z,8.77
2019-03-16T03:36:03.810Z,7.40
2019-03-16T03:38:32.693Z,10.17
2019-03-16T03:41:02.154Z,10.80
2019-03-16T03:43:31.469Z,10.87
2019-03-16T03:46:00.493Z,11.27
2019-03-16T03:48:29.723Z,10.43
2019-03-16T03:50:58.673Z,9.10
2019-03-16T03:53:27.694Z,6.63
2019-03-16T03:55:56.739Z,11.50
2019-03-16T03:58:25.767Z,9.90
2019-03-16T04:00:54.800Z,9.50
2019-03-16T04:03:23.835Z,12.17
2019-03-16T04:05:52.698Z,7.07
2019-03-16T04:08:21.749Z,7.07
2019-03-16T04:10:50.686Z,9.97
2019-03-16T04:13:19.803Z,10.37
2019-03-16T04:15:48.823Z,9.73
2019-03-16T04:18:17.771Z,13.83
2019-03-16T04:20:46.851Z,7.50
2019-03-16T04:23:16.006Z,6.07
2019-03-16T04:25:44.986Z,10.60
2019-03-16T04:28:14.373Z,6.43
2019-03-16T04:30:43.422Z,8.67
2019-03-16T04:33:12.672Z,8.67
2019-03-16T04:35:41.622Z,8.30
2019-03-16T04:38:10.514Z,11.30
2019-03-16T04:40:39.390Z,9.97
2019-03-16T04:43:08.374Z,10.60
2019-03-16T04:45:37.242Z,11.53
2019-03-16T04:48:06.194Z,9.73
2019-03-16T04:50:35.070Z,6.70
2019-03-16T04:53:04.022Z,9.93
2019-03-16T04:55:32.878Z,10.80
2019-03-16T04:58:01.775Z,10.03
2019-03-16T05:00:31.247Z,9.77
2019-03-16T05:03:00.266Z,7.80
2019-03-16T05:05:29.215Z,10.73
2019-03-16T05:07:58.251Z,11.00
2019-03-16T05:10:27.484Z,6.10
2019-03-16T05:12:56.439Z,8.50
2019-03-16T05:15:25.399Z,8.33
2019-03-16T05:17:54.431Z,10.17
2019-03-16T05:20:23.399Z,7.33
2019-03-16T05:22:52.381Z,6.43
2019-03-16T05:25:21.255Z,6.87
2019-03-16T05:27:50.183Z,6.60
2019-03-16T05:30:19.208Z,6.90
2019-03-16T05:32:48.173Z,6.87
2019-03-16T05:35:17.212Z,7.00
2019-03-16T05:37:46.308Z,11.37
2019-03-16T05:40:15.281Z,6.70
2019-03-16T05:42:44.391Z,6.93
2019-03-16T05:45:13.403Z,5.53
2019-03-16T05:47:42.487Z,9.97
2019-03-16T05:50:11.539Z,7.57
2019-03-16T05:52:40.551Z,7.80
2019-03-16T05:55:09.687Z,8.87
2019-03-16T05:57:38.712Z,7.03
2019-03-16T06:00:09.846Z,7.90
2019-03-16T06:02:39.325Z,5.50
2019-03-16T06:05:11.094Z,8.50
2019-03-16T06:07:39.036Z,7.40
2019-03-16T06:10:08.262Z,8.73
2019-03-16T06:12:37.464Z,8.17
2019-03-16T06:15:06.596Z,7.47
2019-03-16T06:17:35.545Z,5.00
2019-03-16T06:20:05.676Z,6.60
2019-03-16T06:22:34.628Z,12.47
2019-03-16T06:25:04.069Z,10.93
2019-03-16T06:27:32.952Z,16.90
2019-03-16T06:30:01.840Z,11.40
2019-03-16T06:32:30.792Z,4.80
2019-03-16T06:34:59.688Z,8.13
2019-03-16T06:37:28.629Z,7.97
2019-03-16T06:39:57.592Z,11.70
2019-03-16T06:42:26.476Z,8.00
2019-03-16T06:44:55.420Z,8.73
2019-03-16T06:47:24.447Z,7.40
2019-03-16T06:49:53.452Z,6.93
2019-03-16T06:52:22.368Z,10.60
2019-03-16T06:54:51.396Z,13.70
2019-03-16T06:57:20.806Z,7.83
2019-03-16T06:59:49.885Z,9.47
2019-03-16T07:02:19.070Z,7.13
2019-03-16T07:04:48.037Z,9.33
2019-03-16T07:07:16.997Z,7.83
2019-03-16T07:09:45.929Z,7.17
2019-03-16T07:12:15.061Z,5.47
2019-03-16T07:14:44.241Z,4.60
2019-03-16T07:17:13.479Z,11.40
2019-03-16T07:19:42.429Z,9.37
2019-03-16T07:22:11.320Z,7.90
2019-03-16T07:24:40.205Z,12.20
2019-03-16T07:27:09.229Z,11.47
2019-03-16T07:29:38.229Z,11.50
2019-03-16T07:32:09.694Z,14.67
2019-03-16T07:34:38.653Z,8.30
2019-03-16T07:37:07.546Z,11.03
2019-03-16T07:39:36.425Z,11.90
2019-03-16T07:42:05.450Z,11.87
2019-03-16T07:44:34.413Z,10.97
2019-03-16T07:47:03.515Z,10.77
2019-03-16T07:49:32.488Z,10.90
2019-03-16T07:52:01.542Z,8.23
2019-03-16T07:54:31.371Z,13.53
2019-03-16T07:57:00.605Z,11.83
2019-03-16T07:59:29.550Z,11.77
2019-03-16T08:01:58.810Z,8.27
2019-03-16T08:04:27.767Z,11.73
2019-03-16T08:06:56.726Z,8.23
2019-03-16T08:09:25.746Z,9.60
2019-03-16T08:11:54.642Z,13.20
2019-03-16T08:14:23.842Z,14.97
2019-03-16T08:16:52.838Z,11.27
2019-03-16T08:19:23.882Z,11.63
2019-03-16T08:21:52.922Z,10.97
2019-03-16T08:24:21.806Z,13.03
2019-03-16T08:26:50.759Z,18.57
2019-03-16T08:29:19.986Z,12.47
2019-03-16T08:31:48.886Z,14.40
2019-03-16T08:34:17.790Z,14.63
2019-03-16T08:36:46.677Z,15.63
2019-03-16T08:39:15.558Z,14.40
2019-03-16T08:41:44.510Z,14.10
2019-03-16T08:44:26.267Z,12.90
2019-03-16T08:46:55.310Z,13.60
2019-03-16T08:49:24.250Z,10.87
2019-03-16T08:51:53.219Z,13.63
2019-03-16T08:54:22.179Z,10.23
2019-03-16T08:56:51.700Z,11.87
2019-03-16T08:59:21.017Z,10.20
2019-03-16T09:01:50.375Z,9.73
2019-03-16T09:04:19.342Z,10.40
2019-03-16T09:06:48.719Z,9.87
2019-03-16T09:09:17.739Z,9.97
2019-03-16T09:11:47.075Z,9.83
2019-03-16T09:14:16.377Z,10.73
2019-03-16T09:16:45.551Z,12.87
2019-03-16T09:19:14.439Z,9.97
2019-03-16T09:21:43.412Z,10.67
2019-03-16T09:24:12.312Z,8.87
2019-03-16T09:26:41.448Z,7.60
2019-03-16T09:29:15.008Z,7.90
2019-03-16T09:31:41.009Z,9.57
2019-03-16T09:34:10.181Z,5.90
2019-03-16T09:36:39.129Z,8.53
2019-03-16T09:39:08.852Z,7.00
2019-03-16T09:41:37.873Z,6.20
2019-03-16T09:44:06.921Z,7.20
2019-03-16T09:46:35.877Z,6.03
2019-03-16T09:49:05.233Z,4.43
2019-03-16T09:51:34.189Z,3.67
2019-03-16T09:54:03.153Z,5.07
2019-03-16T09:56:32.130Z,4.97
2019-03-16T09:59:01.161Z,3.60
2019-03-16T10:01:30.126Z,3.30
2019-03-16T10:03:59.213Z,4.13
2019-03-16T10:06:28.178Z,4.33
2019-03-16T10:08:57.213Z,5.50
2019-03-16T10:11:26.177Z,2.97
2019-03-16T10:13:55.069Z,7.83
2019-03-16T10:16:24.305Z,5.43
2019-03-16T10:18:53.358Z,3.70
2019-03-16T10:21:22.298Z,5.30
2019-03-16T10:23:51.262Z,4.50
2019-03-16T10:26:20.249Z,7.20
2019-03-16T10:28:49.218Z,6.03
2019-03-16T10:31:18.186Z,6.63
2019-03-16T10:33:47.286Z,6.63
2019-03-16T10:36:16.250Z,7.03
2019-03-16T10:38:45.688Z,6.27
2019-03-16T10:41:14.990Z,4.17
2019-03-16T10:43:43.875Z,6.33
2019-03-16T10:46:12.859Z,3.87
2019-03-16T10:48:41.819Z,8.37
2019-03-16T10:51:10.858Z,8.00
2019-03-16T10:53:39.774Z,5.30
2019-03-16T10:56:08.810Z,5.93
2019-03-16T10:58:37.750Z,8.33
2019-03-16T11:01:06.730Z,7.17
2019-03-16T11:03:35.726Z,7.23
2019-03-16T11:06:04.774Z,8.43
2019-03-16T11:08:34.066Z,6.30
2019-03-16T11:11:03.030Z,4.83
2019-03-16T11:13:32.298Z,6.00
2019-03-16T11:16:01.322Z,5.63
2019-03-16T11:18:30.286Z,7.70
2019-03-16T11:20:59.182Z,4.67
2019-03-16T11:23:28.059Z,6.37
2019-03-16T11:25:56.939Z,7.70
2019-03-16T11:28:25.920Z,7.17
2019-03-16T11:30:54.786Z,3.37
2019-03-16T11:33:23.741Z,4.60
2019-03-16T11:35:52.807Z,5.43
2019-03-16T11:38:21.859Z,5.47
2019-03-16T11:40:50.847Z,6.23
2019-03-16T11:43:19.923Z,8.77
2019-03-16T11:45:48.959Z,5.30
2019-03-16T11:48:17.882Z,5.03
2019-03-16T11:50:48.796Z,3.47
2019-03-16T11:53:17.483Z,5.37
2019-03-16T11:55:46.380Z,5.67
2019-03-16T11:58:15.411Z,4.40
2019-03-16T12:00:44.406Z,4.83
2019-03-16T12:03:13.443Z,9.90
2019-03-16T12:05:42.407Z,5.03
2019-03-16T12:08:11.404Z,3.87
2019-03-16T12:10:40.353Z,3.13
2019-03-16T12:13:17.194Z,5.10
2019-03-16T12:15:40.833Z,4.00
2019-03-16T12:18:09.807Z,2.60
2019-03-16T12:20:38.847Z,3.43
2019-03-16T12:23:07.926Z,4.20
2019-03-16T12:25:36.907Z,4.67
2019-03-16T12:28:06.016Z,4.67
2019-03-16T12:30:34.999Z,3.37
2019-03-16T12:33:04.335Z,4.17
2019-03-16T12:35:33.480Z,4.70
2019-03-16T12:38:02.457Z,3.60
2019-03-16T12:40:31.458Z,5.37
2019-03-16T12:43:01.024Z,4.23
2019-03-16T12:45:30.062Z,2.57
2019-03-16T12:47:59.024Z,2.97
2019-03-16T12:50:28.148Z,7.53
2019-03-16T12:52:57.239Z,2.57
2019-03-16T12:55:26.236Z,3.90
2019-03-16T12:57:55.104Z,4.07
2019-03-16T13:00:24.091Z,4.70
2019-03-16T13:02:53.326Z,5.80
2019-03-16T13:05:22.328Z,3.83
2019-03-16T13:07:51.638Z,5.60
2019-03-16T13:10:20.688Z,5.23
2019-03-16T13:12:49.733Z,6.27
2019-03-16T13:15:18.893Z,7.43
2019-03-16T13:17:47.873Z,6.13
2019-03-16T13:20:17.189Z,5.23
2019-03-16T13:22:46.624Z,4.77
2019-03-16T13:25:15.992Z,3.57
2019-03-16T13:27:45.020Z,5.57
2019-03-16T13:30:14.627Z,4.70
2019-03-16T13:32:43.641Z,4.63
2019-03-16T13:35:12.765Z,4.43
2019-03-16T13:37:41.888Z,8.30
2019-03-16T13:40:12.121Z,6.43
2019-03-16T13:42:41.184Z,5.97
2019-03-16T13:45:10.345Z,4.93
2019-03-16T13:47:39.381Z,5.73
2019-03-16T13:50:10.596Z,6.73
2019-03-16T13:52:39.825Z,3.87
2019-03-16T13:55:27.994Z,3.60
2019-03-16T13:57:57.225Z,5.07
2019-03-16T14:00:26.210Z,4.70
2019-03-16T14:02:55.265Z,4.70
2019-03-16T14:05:24.305Z,4.27
2019-03-16T14:07:53.297Z,3.47
2019-03-16T14:10:22.769Z,4.97
2019-03-16T14:12:51.771Z,2.87
2019-03-16T14:15:20.777Z,3.00
2019-03-16T14:17:49.746Z,2.67
2019-03-16T14:20:19.172Z,2.20
2019-03-16T14:22:48.226Z,2.73
2019-03-16T14:25:17.722Z,5.23
2019-03-16T14:27:46.800Z,3.53
2019-03-16T14:30:29.520Z,1.97
2019-03-16T14:32:46.653Z,2.97
2019-03-16T14:35:15.906Z,2.90
2019-03-16T14:37:45.242Z,2.67
2019-03-16T14:40:28.319Z,3.27
2019-03-16T14:43:07.317Z,4.33
2019-03-16T14:45:36.374Z,4.20
2019-03-16T14:48:05.422Z,2.83
2019-03-16T14:50:34.422Z,5.50
2019-03-16T14:53:03.462Z,3.57
2019-03-16T14:55:32.379Z,3.90
2019-03-16T14:58:01.418Z,5.80
2019-03-16T15:00:38.263Z,2.43
2019-03-16T15:03:01.378Z,2.47
2019-03-16T15:05:30.550Z,2.40
2019-03-16T15:07:59.794Z,3.60
2019-03-16T15:10:28.914Z,4.90
2019-03-16T15:12:57.914Z,6.97
2019-03-16T15:15:26.945Z,4.10
2019-03-16T15:17:56.006Z,2.20
2019-03-16T15:20:25.475Z,4.87
2019-03-16T15:22:54.530Z,2.93
2019-03-16T15:25:23.543Z,3.53
2019-03-16T15:27:52.586Z,3.10
2019-03-16T15:30:21.810Z,4.97
2019-03-16T15:32:50.871Z,4.03
2019-03-16T15:35:19.847Z,3.23
2019-03-16T15:37:48.915Z,4.43
2019-03-16T15:40:17.958Z,3.03
2019-03-16T15:42:47.020Z,2.77
2019-03-16T15:45:17.295Z,2.17
2019-03-16T15:47:46.334Z,3.27
2019-03-16T15:50:15.423Z,2.73
2019-03-16T15:52:44.499Z,3.93
2019-03-16T15:55:13.848Z,3.10
2019-03-16T15:57:44.056Z,2.57
2019-03-16T16:00:13.848Z,2.87
2019-03-16T16:02:43.085Z,2.47
2019-03-16T16:05:12.311Z,2.90
2019-03-16T16:07:41.819Z,3.60
2019-03-16T16:10:11.512Z,2.43
2019-03-16T16:12:40.476Z,5.40
2019-03-16T16:15:09.601Z,2.30
2019-03-16T16:17:38.586Z,3.70
2019-03-16T16:20:08.316Z,4.70
2019-03-16T16:22:37.400Z,2.60
2019-03-16T16:25:07.480Z,3.37
2019-03-16T16:27:36.577Z,2.13
2019-03-16T16:30:06.885Z,2.30
2019-03-16T16:32:35.768Z,2.70
2019-03-16T16:35:04.857Z,2.27
2019-03-16T16:37:34.209Z,2.07
2019-03-16T16:40:03.289Z,2.67
2019-03-16T16:42:32.357Z,4.30
2019-03-16T16:45:01.373Z,3.70
2019-03-16T16:47:30.529Z,2.63
2019-03-16T16:50:00.017Z,3.67
2019-03-16T16:52:29.002Z,2.67
2019-03-16T16:54:58.237Z,2.27
2019-03-16T16:57:27.198Z,3.40
2019-03-16T16:59:58.353Z,3.67
2019-03-16T17:02:26.961Z,3.67
2019-03-16T17:04:55.929Z,2.70
2019-03-16T17:07:24.909Z,4.03
2019-03-16T17:09:53.905Z,5.10
2019-03-16T17:12:22.982Z,3.10
2019-03-16T17:14:52.798Z,2.83
2019-03-16T17:17:34.365Z,2.33
2019-03-16T17:19:52.449Z,3.33
2019-03-16T17:22:21.737Z,3.67
2019-03-16T17:24:50.781Z,3.90
2019-03-16T17:27:19.897Z,4.13
2019-03-16T17:29:48.865Z,4.93
2019-03-16T17:32:17.981Z,3.23
2019-03-16T17:34:47.206Z,3.03
2019-03-16T17:37:16.270Z,6.53
2019-03-16T17:39:45.322Z,2.67
2019-03-16T17:42:14.664Z,3.87
2019-03-16T17:44:43.654Z,3.90
2019-03-16T17:47:12.698Z,3.77
2019-03-16T17:49:41.738Z,2.60
2019-03-16T17:52:10.735Z,3.30
2019-03-16T17:54:39.630Z,3.17
2019-03-16T17:57:08.622Z,4.03
2019-03-16T17:59:37.610Z,3.43
2019-03-16T18:02:06.774Z,3.50
2019-03-16T18:04:35.814Z,4.57
2019-03-16T18:07:05.130Z,2.53
2019-03-16T18:09:34.210Z,3.00
2019-03-16T18:12:03.330Z,4.73
2019-03-16T18:14:32.214Z,4.80
2019-03-16T18:17:01.719Z,4.53
2019-03-16T18:19:31.094Z,4.30
2019-03-16T18:22:00.155Z,3.63
2019-03-16T18:24:29.079Z,4.70
2019-03-16T18:26:58.077Z,3.47
2019-03-16T18:29:27.127Z,5.53
2019-03-16T18:32:07.311Z,3.47
2019-03-16T18:34:26.786Z,8.10
2019-03-16T18:36:55.815Z,3.97
2019-03-16T18:39:24.749Z,4.00
2019-03-16T18:41:53.790Z,3.67
2019-03-16T18:44:22.852Z,4.27
2019-03-16T18:46:53.410Z,3.03
2019-03-16T18:49:22.467Z,4.23
2019-03-16T18:51:51.586Z,3.13
2019-03-16T18:54:20.583Z,3.20
2019-03-16T18:56:50.178Z,3.10
2019-03-16T18:59:19.214Z,4.33
2019-03-16T19:01:48.591Z,5.50
2019-03-16T19:04:17.891Z,6.80
2019-03-16T19:06:46.915Z,3.53
2019-03-16T19:09:15.887Z,3.00
2019-03-16T19:11:44.953Z,3.33
2019-03-16T19:14:18.885Z,4.37
2019-03-16T19:16:48.006Z,2.83
2019-03-16T19:19:17.205Z,5.67
2019-03-16T19:21:46.218Z,2.47
2019-03-16T19:24:15.803Z,5.97
2019-03-16T19:26:44.847Z,4.63
2019-03-16T19:29:13.842Z,5.70
2019-03-16T19:31:42.813Z,3.97
2019-03-16T19:34:11.917Z,3.57
2019-03-16T19:36:40.865Z,4.50
2019-03-16T19:39:09.950Z,3.80
2019-03-16T19:41:41.446Z,3.90
2019-03-16T19:44:10.037Z,6.40
2019-03-16T19:46:39.112Z,4.03
2019-03-16T19:49:08.083Z,2.87
2019-03-16T19:51:37.093Z,6.00
2019-03-16T19:54:06.160Z,5.20
2019-03-16T19:56:35.398Z,2.93
2019-03-16T19:59:04.521Z,3.43
2019-03-16T20:01:33.545Z,3.20
2019-03-16T20:04:02.533Z,5.80
2019-03-16T20:06:31.507Z,5.57
2019-03-16T20:09:00.494Z,5.53
2019-03-16T20:11:29.708Z,6.97
2019-03-16T20:13:58.615Z,5.20
2019-03-16T20:16:27.805Z,7.10
2019-03-16T20:18:57.268Z,6.67
2019-03-16T20:21:26.335Z,5.50
2019-03-16T20:23:55.224Z,8.03
2019-03-16T20:26:24.328Z,6.00
2019-03-16T20:28:53.365Z,5.93
2019-03-16T20:31:22.340Z,6.00
2019-03-16T20:33:51.432Z,7.20
2019-03-16T20:36:20.364Z,8.47
2019-03-16T20:38:49.304Z,8.50
2019-03-16T20:41:18.229Z,7.27
2019-03-16T20:43:47.244Z,5.37
2019-03-16T20:46:16.612Z,6.10
2019-03-16T20:48:45.656Z,5.60
2019-03-16T20:51:14.708Z,9.47
2019-03-16T20:53:44.760Z,7.87
2019-03-16T20:56:14.072Z,7.43
2019-03-16T20:58:42.965Z,8.17
2019-03-16T21:01:12.029Z,7.23
2019-03-16T21:03:41.425Z,7.00
2019-03-16T21:06:10.667Z,8.73
2019-03-16T21:08:40.183Z,10.83
2019-03-16T21:11:09.276Z,7.33
2019-03-16T21:13:38.202Z,8.77
2019-03-16T21:16:07.248Z,9.63
2019-03-16T21:18:36.213Z,8.33
2019-03-16T21:21:05.373Z,6.63
2019-03-16T21:23:34.285Z,5.37
2019-03-16T21:26:03.346Z,7.80
2019-03-16T21:28:32.330Z,6.83
2019-03-16T21:31:01.601Z,6.50
2019-03-16T21:33:30.885Z,7.50
2019-03-16T21:36:00.100Z,6.70
2019-03-16T21:38:29.125Z,8.30
2019-03-16T21:40:58.037Z,5.43
2019-03-16T21:43:27.077Z,7.90
2019-03-16T21:45:56.757Z,7.53
2019-03-16T21:48:25.721Z,5.67
2019-03-16T21:50:55.125Z,8.50
2019-03-16T21:53:24.257Z,6.00
2019-03-16T21:55:53.219Z,5.50
2019-03-16T21:58:22.122Z,5.80
2019-03-16T22:00:51.181Z,6.33
2019-03-16T22:03:20.094Z,5.80
2019-03-16T22:05:49.065Z,5.20
2019-03-16T22:08:18.178Z,7.23
2019-03-16T22:10:47.198Z,7.70
2019-03-16T22:13:16.220Z,7.60
2019-03-16T22:15:45.346Z,9.67
2019-03-16T22:18:14.441Z,8.03
2019-03-16T22:20:43.477Z,8.57
2019-03-16T22:23:12.440Z,9.60
2019-03-16T22:25:41.806Z,5.90
2019-03-16T22:28:11.134Z,7.03
2019-03-16T22:30:40.462Z,6.43
2019-03-16T22:33:10.573Z,5.97
2019-03-16T22:35:39.563Z,6.17
2019-03-16T22:38:08.654Z,6.37
2019-03-16T22:40:37.602Z,6.00
2019-03-16T22:43:06.834Z,6.03
2019-03-16T22:45:36.101Z,8.63
2019-03-16T22:48:05.258Z,5.60
2019-03-16T22:50:34.246Z,8.93
2019-03-16T22:53:03.326Z,8.03
2019-03-16T22:55:32.372Z,7.27
2019-03-16T22:58:01.450Z,7.77
2019-03-16T23:00:42.617Z,6.80
2019-03-16T23:03:11.742Z,5.17
2019-03-16T23:05:40.792Z,6.10
2019-03-16T23:08:09.753Z,7.20
2019-03-16T23:10:38.766Z,6.90
2019-03-16T23:13:07.751Z,5.23
2019-03-16T23:15:36.719Z,6.10
2019-03-16T23:18:05.735Z,7.20
2019-03-16T23:20:34.700Z,8.13
2019-03-16T23:23:04.131Z,7.07
2019-03-16T23:25:33.195Z,6.33
2019-03-16T23:28:02.160Z,4.77
2019-03-16T23:30:31.139Z,5.07
2019-03-16T23:33:00.129Z,5.93
2019-03-16T23:35:29.179Z,5.83
2019-03-16T23:37:58.147Z,4.20
2019-03-16T23:40:27.255Z,5.50
2019-03-16T23:42:56.403Z,5.07
2019-03-16T23:45:25.741Z,6.37
2019-03-16T23:47:55.171Z,5.97
2019-03-16T23:50:24.144Z,5.07
2019-03-16T23:52:53.196Z,6.13
2019-03-16T23:55:22.148Z,6.63
2019-03-16T23:57:51.211Z,5.67
